KCEC

Jack Mc Namara Field Airport

Crescent City, California, USA
METAR KCEC 230656Z AUTO 02008KT 10SM CLR 06/M04 A3039 RMK AO2 SLP291 T00561039
Observed Flight Rules
Feb-23 @ 06:56 UTC (an hour ago) Visual Flight Rules
Wind Visibility Clouds
20° at 8 knots 10 miles
  • Clear skies
Temperatures Readings
Current 6°C / 43°F
Dewpoint -4°C / 25°F
Humidity 49%
Altimeter 30.39" Hg
Pressure 1029.1 hPa
Elevation 17
METAR KCEC 230656Z AUTO 02008KT 10SM CLR 06/M04 A3039 RMK AO2 SLP291 T00561039
Observed Flight Rules
Feb-23 @ 06:56 UTC
(an hour ago)
VFR
Wind Visibility
20° at 8 knots 10 miles
Clouds
  • Clear skies
Temperature Dewpoint
6°C / 43°F -4°C / 25°F
Humidity Altimeter Pressure
49% 30.39" Hg 1029.1 hPa